Time;durP1;ratioP1;P1;durP2;ratioP2;P2;SDS_P1;SDS_P2;PMS_P1;PMS_P2;Temp;Humidity;BMP_temperature;BMP_pressure;BME280_temperature;BME280_humidity;BME280_pressure;Samples;Min_cycle;Max_cycle;Signal;HPM_P1;HPM_P2
2022/09/20 00:02:23;;;;;;;;;;;8.70;99.90;;;;;;5065824;28;20450;-73
2022/09/20 00:04:54;;;;;;;;;;;8.70;99.90;;;;;;5079229;28;19982;-73
2022/09/20 00:07:26;;;;;;;;;;;8.70;99.90;;;;;;5080851;28;20394;-73
2022/09/20 00:09:57;;;;;;;;;;;8.70;99.90;;;;;;5059144;28;19928;-72
2022/09/20 00:12:29;;;;;;;;;;;8.60;99.90;;;;;;5075579;28;19925;-73
2022/09/20 00:15:00;;;;;;;;;;;8.60;99.90;;;;;;5057675;28;19981;-73
2022/09/20 00:17:32;;;;;;;;;;;8.60;99.90;;;;;;5076001;28;19982;-73
2022/09/20 00:20:04;;;;;;;;;;;8.60;99.90;;;;;;5065471;28;20353;-73
2022/09/20 00:22:35;;;;;;;;;;;8.60;99.90;;;;;;5065428;28;20606;-73
2022/09/20 00:25:07;;;;;;;;;;;8.70;99.90;;;;;;5044962;28;20342;-73
2022/09/20 00:27:39;;;;;;;;;;;8.70;99.90;;;;;;5060626;28;19947;-73
2022/09/20 00:30:11;;;;;;;;;;;8.70;99.90;;;;;;5084699;28;19928;-73
2022/09/20 00:32:43;;;;;;;;;;;8.60;99.90;;;;;;5081900;28;19928;-73
2022/09/20 00:35:15;;;;;;;;;;;8.50;99.90;;;;;;5080711;28;19970;-72
2022/09/20 00:37:46;;;;;;;;;;;8.40;99.90;;;;;;5081433;28;19963;-73
2022/09/20 00:40:19;;;;;;;;;;;8.30;99.90;;;;;;5077827;28;20346;-73
2022/09/20 00:42:50;;;;;;;;;;;8.30;99.90;;;;;;5074344;28;19928;-73
2022/09/20 00:45:22;;;;;;;;;;;8.30;99.90;;;;;;5064290;28;20391;-73
2022/09/20 00:48:00;;;;;;;;;;;8.20;99.90;;;;;;5077728;28;19928;-73
2022/09/20 00:50:34;;;;;;;;;;;8.20;99.90;;;;;;5059403;28;19924;-73
2022/09/20 00:53:07;;;;;;;;;;;8.20;99.90;;;;;;5080176;28;19928;-73
2022/09/20 00:55:41;;;;;;;;;;;8.20;99.90;;;;;;5068788;28;19966;-73
2022/09/20 00:58:13;;;;;;;;;;;8.10;99.90;;;;;;5068195;28;20379;-72
2022/09/20 01:00:45;;;;;;;;;;;8.00;99.90;;;;;;5072172;28;19959;-73
2022/09/20 01:03:19;;;;;;;;;;;8.10;99.90;;;;;;5041830;28;19983;-73
2022/09/20 01:05:51;;;;;;;;;;;8.10;99.90;;;;;;5087538;28;19928;-73
2022/09/20 01:08:25;;;;;;;;;;;8.00;99.90;;;;;;5072820;28;19931;-73
2022/09/20 01:10:57;;;;;;;;;;;8.10;99.90;;;;;;5085026;28;19932;-73
2022/09/20 01:13:28;;;;;;;;;;;8.10;99.90;;;;;;5066685;28;19928;-73
2022/09/20 01:16:01;;;;;;;;;;;8.10;99.90;;;;;;5080516;28;19981;-73
2022/09/20 01:18:33;;;;;;;;;;;8.10;99.90;;;;;;5074398;28;19942;-73
2022/09/20 01:21:06;;;;;;;;;;;8.10;99.90;;;;;;5073964;28;19981;-73
2022/09/20 01:23:50;;;;;;;;;;;8.20;99.90;;;;;;5062982;28;20558;-72
2022/09/20 01:26:40;;;;;;;;;;;8.20;99.90;;;;;;5087739;28;19932;-73
2022/09/20 01:29:22;;;;;;;;;;;8.20;99.90;;;;;;5083803;28;19928;-73
2022/09/20 01:31:55;;;;;;;;;;;8.20;99.90;;;;;;5068887;28;19981;-73
2022/09/20 01:34:36;;;;;;;;;;;8.30;99.90;;;;;;5083980;28;19979;-73
2022/09/20 01:37:34;;;;;;;;;;;8.30;99.90;;;;;;5063418;28;19924;-73
2022/09/20 01:40:15;;;;;;;;;;;8.40;99.90;;;;;;5078797;28;20280;-73
2022/09/20 01:42:57;;;;;;;;;;;8.30;99.90;;;;;;5083364;28;20273;-73
2022/09/20 01:45:30;;;;;;;;;;;8.30;99.90;;;;;;5049684;28;19924;-73
2022/09/20 01:48:01;;;;;;;;;;;8.30;99.90;;;;;;5087614;28;19932;-73
2022/09/20 01:50:53;;;;;;;;;;;8.30;99.90;;;;;;5067658;28;19924;-73
2022/09/20 01:53:27;;;;;;;;;;;8.30;99.90;;;;;;5057858;28;19929;-73
2022/09/20 01:56:11;;;;;;;;;;;8.20;99.90;;;;;;5064606;28;19932;-73
2022/09/20 01:58:59;;;;;;;;;;;8.10;99.90;;;;;;5074917;28;19928;-73
2022/09/20 02:01:39;;;;;;;;;;;8.00;99.90;;;;;;5073236;28;19955;-73
2022/09/20 02:04:21;;;;;;;;;;;8.00;99.90;;;;;;5073418;28;19928;-73
2022/09/20 02:07:19;;;;;;;;;;;7.90;99.90;;;;;;5063243;28;19959;-73
2022/09/20 02:10:09;;;;;;;;;;;8.00;99.90;;;;;;5056142;28;20307;-72
2022/09/20 02:12:53;;;;;;;;;;;7.90;99.90;;;;;;5058110;28;19977;-73
2022/09/20 02:15:43;;;;;;;;;;;8.00;99.90;;;;;;5066609;28;19982;-74
2022/09/20 02:18:16;;;;;;;;;;;7.90;99.90;;;;;;5083404;28;19970;-73
2022/09/20 02:20:42;;;;;;;;;;;8.00;99.90;;;;;;5068624;28;20274;-73
2022/09/20 02:23:14;;;;;;;;;;;8.00;99.90;;;;;;5080246;28;19978;-73
2022/09/20 02:25:43;;;;;;;;;;;8.00;99.90;;;;;;5080190;28;20371;-73
2022/09/20 02:28:31;;;;;;;;;;;8.10;99.90;;;;;;5060768;28;19924;-73
2022/09/20 02:31:05;;;;;;;;;;;8.10;99.90;;;;;;5064407;28;19932;-73
2022/09/20 02:33:36;;;;;;;;;;;8.30;99.90;;;;;;5072132;28;19932;-73
2022/09/20 02:36:08;;;;;;;;;;;8.20;99.90;;;;;;5087297;28;19924;-73
2022/09/20 02:38:58;;;;;;;;;;;8.30;99.90;;;;;;5083390;28;19997;-73
2022/09/20 02:41:35;;;;;;;;;;;8.30;99.90;;;;;;5076401;28;20345;-72
2022/09/20 02:44:13;;;;;;;;;;;8.30;99.90;;;;;;5063708;28;19978;-73
2022/09/20 02:47:03;;;;;;;;;;;8.40;99.90;;;;;;5072575;28;19978;-73
2022/09/20 02:49:38;;;;;;;;;;;8.40;99.90;;;;;;5084666;28;19993;-73
2022/09/20 02:52:24;;;;;;;;;;;8.40;99.90;;;;;;5061140;28;19927;-73
2022/09/20 02:55:04;;;;;;;;;;;8.50;99.90;;;;;;5065843;28;19978;-73
2022/09/20 02:57:58;;;;;;;;;;;8.50;99.90;;;;;;5064184;28;20278;-73
2022/09/20 03:00:41;;;;;;;;;;;8.50;99.90;;;;;;5052978;28;20477;-73
2022/09/20 03:03:33;;;;;;;;;;;8.50;99.90;;;;;;5056709;28;19935;-73
2022/09/20 03:06:11;;;;;;;;;;;8.50;99.90;;;;;;5066106;28;20310;-73
2022/09/20 03:08:57;;;;;;;;;;;8.50;99.90;;;;;;5078009;28;19970;-73
2022/09/20 03:11:31;;;;;;;;;;;8.50;99.90;;;;;;5079274;28;19931;-73
2022/09/20 03:14:16;;;;;;;;;;;8.50;99.90;;;;;;5036741;28;19932;-74
2022/09/20 03:16:48;;;;;;;;;;;8.50;99.90;;;;;;5074513;28;19928;-73
2022/09/20 03:19:38;;;;;;;;;;;8.50;99.90;;;;;;5048511;28;19928;-73
2022/09/20 03:22:13;;;;;;;;;;;8.50;99.90;;;;;;5074454;28;19928;-73
2022/09/20 03:24:47;;;;;;;;;;;8.50;99.90;;;;;;5078429;28;19979;-73
2022/09/20 03:27:31;;;;;;;;;;;8.50;99.90;;;;;;5078074;28;19966;-73
2022/09/20 03:30:06;;;;;;;;;;;8.50;99.90;;;;;;5063444;28;19985;-73
2022/09/20 03:32:46;;;;;;;;;;;8.50;99.90;;;;;;5072567;28;20357;-73
2022/09/20 03:35:35;;;;;;;;;;;8.50;99.90;;;;;;5053682;28;19929;-73
2022/09/20 03:38:07;;;;;;;;;;;8.60;99.90;;;;;;5070151;28;19924;-73
2022/09/20 03:40:41;;;;;;;;;;;8.50;99.90;;;;;;5069664;28;19970;-73
2022/09/20 03:43:39;;;;;;;;;;;8.50;99.90;;;;;;5055550;28;19924;-73
2022/09/20 03:46:17;;;;;;;;;;;8.50;99.90;;;;;;5060884;28;19924;-73
2022/09/20 03:49:03;;;;;;;;;;;8.50;99.90;;;;;;5081477;28;19928;-73
2022/09/20 03:51:51;;;;;;;;;;;8.50;99.90;;;;;;5074673;28;19924;-73
2022/09/20 03:54:26;;;;;;;;;;;8.50;99.90;;;;;;5062370;28;19928;-73
2022/09/20 03:57:03;;;;;;;;;;;8.40;99.90;;;;;;5058499;28;19955;-72
2022/09/20 03:59:54;;;;;;;;;;;8.50;99.90;;;;;;5084589;28;19924;-72
2022/09/20 04:02:43;;;;;;;;;;;8.50;99.90;;;;;;5075033;28;19982;-75
2022/09/20 04:05:18;;;;;;;;;;;8.50;99.90;;;;;;5071119;28;19925;-73
2022/09/20 04:07:52;;;;;;;;;;;8.50;99.90;;;;;;5066541;28;19981;-73
2022/09/20 04:10:42;;;;;;;;;;;8.40;99.90;;;;;;5064004;28;19924;-73
2022/09/20 04:13:32;;;;;;;;;;;8.40;99.90;;;;;;5053424;28;19931;-75
2022/09/20 04:16:13;;;;;;;;;;;8.40;99.90;;;;;;5055964;28;20311;-73
2022/09/20 04:18:50;;;;;;;;;;;8.40;99.90;;;;;;5054125;28;19975;-73
2022/09/20 04:21:22;;;;;;;;;;;8.40;99.90;;;;;;5058040;28;19928;-73
2022/09/20 04:24:09;;;;;;;;;;;8.40;99.90;;;;;;5054686;28;19928;-73
2022/09/20 04:26:40;;;;;;;;;;;8.40;99.90;;;;;;5084267;28;19924;-73
2022/09/20 04:29:33;;;;;;;;;;;8.40;99.90;;;;;;5072079;28;19932;-73
2022/09/20 04:32:11;;;;;;;;;;;8.40;99.90;;;;;;5073358;28;19932;-73
2022/09/20 04:37:39;;;;;;;;;;;8.40;99.90;;;;;;5052712;28;19929;-72
2022/09/20 04:40:14;;;;;;;;;;;8.40;99.90;;;;;;5065952;28;20414;-74
2022/09/20 04:42:50;;;;;;;;;;;8.40;99.90;;;;;;5077073;28;20878;-73
2022/09/20 04:45:31;;;;;;;;;;;8.40;99.90;;;;;;5060868;28;19935;-73
2022/09/20 04:48:22;;;;;;;;;;;8.40;99.90;;;;;;5057751;28;19931;-73
2022/09/20 04:51:00;;;;;;;;;;;8.40;99.90;;;;;;5077996;28;20402;-73
2022/09/20 04:53:43;;;;;;;;;;;8.40;99.90;;;;;;5038015;28;19924;-73
2022/09/20 04:56:18;;;;;;;;;;;8.40;99.90;;;;;;5078142;28;19970;-74
2022/09/20 04:59:04;;;;;;;;;;;8.40;99.90;;;;;;5074870;28;19924;-73
2022/09/20 05:01:34;;;;;;;;;;;8.30;99.90;;;;;;5071084;28;19932;-73
2022/09/20 05:04:00;;;;;;;;;;;8.30;99.90;;;;;;5076008;28;19928;-73
2022/09/20 05:06:40;;;;;;;;;;;8.30;99.90;;;;;;5064374;28;20284;-73
2022/09/20 05:09:06;;;;;;;;;;;8.30;99.90;;;;;;5077935;28;19924;-72
2022/09/20 05:11:46;;;;;;;;;;;8.30;99.90;;;;;;5041149;28;19935;-73
2022/09/20 05:14:33;;;;;;;;;;;8.40;99.90;;;;;;5059672;28;19928;-73
2022/09/20 05:17:13;;;;;;;;;;;8.40;99.90;;;;;;5072214;28;20327;-73
2022/09/20 05:20:03;;;;;;;;;;;8.30;99.90;;;;;;5063223;28;19928;-73
2022/09/20 05:22:48;;;;;;;;;;;8.30;99.90;;;;;;5073754;28;19928;-72
2022/09/20 05:25:38;;;;;;;;;;;8.40;99.90;;;;;;5056081;28;19924;-73
2022/09/20 05:28:18;;;;;;;;;;;8.40;99.90;;;;;;5073092;28;19928;-73
2022/09/20 05:31:05;;;;;;;;;;;8.40;99.90;;;;;;5058031;28;19924;-72
2022/09/20 05:33:55;;;;;;;;;;;8.40;99.90;;;;;;5068681;28;20423;-73
2022/09/20 05:36:40;;;;;;;;;;;8.40;99.90;;;;;;5051324;28;19929;-73
2022/09/20 05:39:20;;;;;;;;;;;8.50;99.90;;;;;;5058836;28;20715;-73
2022/09/20 05:42:19;;;;;;;;;;;8.50;99.90;;;;;;5053441;28;19975;-73
2022/09/20 05:44:56;;;;;;;;;;;8.50;99.90;;;;;;5040434;28;19924;-73
2022/09/20 05:47:36;;;;;;;;;;;8.50;99.90;;;;;;5064029;28;19929;-73
2022/09/20 05:50:32;;;;;;;;;;;8.50;99.90;;;;;;5057427;28;19924;-72
2022/09/20 05:53:22;;;;;;;;;;;8.40;99.90;;;;;;5059376;28;20376;-73
2022/09/20 05:56:00;;;;;;;;;;;8.40;99.90;;;;;;5073064;28;19936;-73
2022/09/20 05:58:41;;;;;;;;;;;8.40;99.90;;;;;;5062121;28;19936;-73
2022/09/20 06:01:15;;;;;;;;;;;8.50;99.90;;;;;;5078823;28;20026;-72
2022/09/20 06:03:54;;;;;;;;;;;8.40;99.90;;;;;;5057873;28;19932;-74
2022/09/20 06:06:35;;;;;;;;;;;8.50;99.90;;;;;;5065017;28;20433;-73
2022/09/20 06:09:25;;;;;;;;;;;8.50;99.90;;;;;;5073289;28;19933;-73
2022/09/20 06:12:05;;;;;;;;;;;8.50;99.90;;;;;;5074974;28;20215;-73
2022/09/20 06:14:42;;;;;;;;;;;8.50;99.90;;;;;;5058467;28;20273;-73
2022/09/20 06:17:17;;;;;;;;;;;8.40;99.90;;;;;;5060915;28;20291;-73
2022/09/20 06:20:08;;;;;;;;;;;8.50;99.90;;;;;;5065010;28;19932;-74
2022/09/20 06:22:42;;;;;;;;;;;8.50;99.90;;;;;;5058807;28;19964;-73
2022/09/20 06:25:13;;;;;;;;;;;8.50;99.90;;;;;;5057566;28;20268;-73
2022/09/20 06:28:05;;;;;;;;;;;8.60;99.90;;;;;;5082220;28;19974;-73
2022/09/20 06:30:42;;;;;;;;;;;8.60;99.90;;;;;;5065825;28;19935;-73
2022/09/20 06:33:15;;;;;;;;;;;8.60;99.90;;;;;;5053578;28;20018;-74
2022/09/20 06:35:53;;;;;;;;;;;8.60;99.90;;;;;;5070029;28;19924;-74
2022/09/20 06:41:27;;;;;;;;;;;8.60;99.90;;;;;;5077558;28;19981;-74
2022/09/20 06:44:03;;;;;;;;;;;8.70;99.90;;;;;;5077625;28;19928;-73
2022/09/20 06:46:35;;;;;;;;;;;8.70;99.90;;;;;;5080437;28;20357;-73
2022/09/20 06:49:02;;;;;;;;;;;8.80;99.90;;;;;;5066058;28;19925;-73
2022/09/20 06:51:35;;;;;;;;;;;8.70;99.90;;;;;;5075853;28;19924;-73
2022/09/20 06:54:12;;;;;;;;;;;8.80;99.90;;;;;;5054205;28;19932;-73
2022/09/20 06:56:38;;;;;;;;;;;8.80;99.90;;;;;;5082743;28;19936;-73
2022/09/20 06:59:11;;;;;;;;;;;8.80;99.90;;;;;;5079423;28;19928;-73
2022/09/20 07:01:43;;;;;;;;;;;8.80;99.90;;;;;;5075454;28;19928;-73
2022/09/20 07:04:14;;;;;;;;;;;8.80;99.90;;;;;;5064818;28;19953;-73
2022/09/20 07:06:46;;;;;;;;;;;8.80;99.90;;;;;;5074822;28;19928;-73
2022/09/20 07:09:18;;;;;;;;;;;8.80;99.90;;;;;;5061349;28;19928;-73
2022/09/20 07:11:49;;;;;;;;;;;8.80;99.90;;;;;;5046436;28;20518;-73
2022/09/20 07:14:22;;;;;;;;;;;8.70;99.90;;;;;;5079471;28;19925;-73
2022/09/20 07:16:53;;;;;;;;;;;8.80;99.90;;;;;;5081696;28;20341;-73
2022/09/20 07:19:25;;;;;;;;;;;8.80;99.90;;;;;;5065245;28;20419;-74
2022/09/20 07:21:56;;;;;;;;;;;8.80;99.90;;;;;;5068318;28;19960;-73
2022/09/20 07:24:31;;;;;;;;;;;8.70;99.90;;;;;;5069852;28;19932;-73
2022/09/20 07:26:59;;;;;;;;;;;8.70;99.90;;;;;;5060550;28;19979;-73
2022/09/20 07:29:30;;;;;;;;;;;8.70;99.90;;;;;;5061978;28;20280;-73
2022/09/20 07:32:02;;;;;;;;;;;8.70;99.90;;;;;;5061503;28;19977;-73
2022/09/20 07:34:34;;;;;;;;;;;8.70;99.90;;;;;;5070787;28;19935;-73
2022/09/20 07:37:05;;;;;;;;;;;8.70;99.90;;;;;;5060900;28;19932;-73
2022/09/20 07:39:37;;;;;;;;;;;8.70;99.90;;;;;;5061417;28;19928;-73
2022/09/20 07:42:08;;;;;;;;;;;8.70;99.90;;;;;;5070851;28;19932;-74
2022/09/20 07:44:35;;;;;;;;;;;8.70;99.90;;;;;;5075680;28;19931;-73
2022/09/20 07:47:08;;;;;;;;;;;8.90;99.90;;;;;;5068853;28;20098;-73
2022/09/20 07:49:39;;;;;;;;;;;9.00;99.90;;;;;;5074560;28;19990;-73
2022/09/20 07:52:13;;;;;;;;;;;9.00;99.90;;;;;;5058720;28;19960;-74
2022/09/20 07:54:45;;;;;;;;;;;9.10;99.90;;;;;;5062806;28;20548;-73
2022/09/20 07:57:16;;;;;;;;;;;9.10;99.90;;;;;;5079564;28;19924;-74
2022/09/20 07:59:43;;;;;;;;;;;9.10;99.90;;;;;;5063283;28;19971;-74
2022/09/20 08:02:13;;;;;;;;;;;9.00;99.90;;;;;;5053333;28;19928;-73
2022/09/20 08:04:48;;;;;;;;;;;9.00;99.90;;;;;;5055404;28;19993;-73
2022/09/20 08:07:20;;;;;;;;;;;9.00;99.90;;;;;;5077429;28;20464;-73
2022/09/20 08:09:46;;;;;;;;;;;9.10;99.90;;;;;;5057307;28;19966;-73
2022/09/20 08:12:18;;;;;;;;;;;9.10;99.90;;;;;;5074516;28;19929;-73
2022/09/20 08:14:45;;;;;;;;;;;9.10;99.90;;;;;;5061227;28;20384;-73
2022/09/20 08:17:18;;;;;;;;;;;9.10;99.90;;;;;;5074906;28;19924;-73
2022/09/20 08:19:51;;;;;;;;;;;9.20;99.90;;;;;;5069761;28;20403;-73
2022/09/20 08:22:19;;;;;;;;;;;9.20;99.90;;;;;;5068620;28;19932;-73
2022/09/20 08:24:45;;;;;;;;;;;9.20;99.90;;;;;;5043927;28;20472;-74
2022/09/20 08:27:12;;;;;;;;;;;9.30;99.90;;;;;;5036081;28;19928;-73
2022/09/20 08:29:44;;;;;;;;;;;9.40;99.90;;;;;;5077726;28;20291;-73
2022/09/20 08:32:15;;;;;;;;;;;9.40;99.90;;;;;;5064892;28;19928;-73
2022/09/20 08:34:42;;;;;;;;;;;9.40;99.90;;;;;;5064078;28;19924;-73
2022/09/20 08:37:13;;;;;;;;;;;9.40;99.90;;;;;;5078879;28;19925;-73
2022/09/20 08:39:45;;;;;;;;;;;9.40;99.90;;;;;;5054108;28;19931;-73
2022/09/20 08:42:22;;;;;;;;;;;9.40;99.90;;;;;;5060306;28;19933;-73
2022/09/20 08:44:56;;;;;;;;;;;9.50;99.90;;;;;;5059273;28;19933;-73
2022/09/20 08:47:30;;;;;;;;;;;9.50;99.90;;;;;;5047515;28;19925;-73
2022/09/20 08:49:58;;;;;;;;;;;9.50;99.90;;;;;;5066699;28;19944;-73
2022/09/20 08:52:35;;;;;;;;;;;9.60;99.90;;;;;;5070345;28;19985;-73
2022/09/20 08:55:03;;;;;;;;;;;9.70;99.90;;;;;;5070963;28;19924;-72
2022/09/20 08:57:31;;;;;;;;;;;9.70;99.90;;;;;;5078111;28;19935;-73
2022/09/20 09:00:03;;;;;;;;;;;9.70;99.90;;;;;;5055581;28;19924;-73
2022/09/20 09:02:31;;;;;;;;;;;9.80;99.90;;;;;;5054583;28;19983;-72
2022/09/20 09:05:05;;;;;;;;;;;9.80;99.90;;;;;;5074357;28;19928;-72
2022/09/20 09:07:38;;;;;;;;;;;9.80;99.90;;;;;;5071168;28;19956;-73
2022/09/20 09:10:10;;;;;;;;;;;9.80;99.90;;;;;;5061327;28;20387;-73
2022/09/20 09:12:45;;;;;;;;;;;9.80;99.90;;;;;;5069059;28;20434;-73
2022/09/20 09:15:22;;;;;;;;;;;9.70;99.90;;;;;;5062870;28;19958;-72
2022/09/20 09:17:54;;;;;;;;;;;9.80;99.90;;;;;;5055490;28;19924;-73
2022/09/20 09:20:26;;;;;;;;;;;9.80;99.90;;;;;;5061719;28;19940;-72
2022/09/20 09:23:00;;;;;;;;;;;9.80;99.90;;;;;;5064262;28;19990;-72
2022/09/20 09:25:36;;;;;;;;;;;9.80;99.90;;;;;;5070570;28;19927;-73
2022/09/20 09:28:08;;;;;;;;;;;9.80;99.90;;;;;;5079111;28;19936;-73
2022/09/20 09:30:43;;;;;;;;;;;9.80;99.90;;;;;;5080211;28;20049;-72
2022/09/20 09:33:20;;;;;;;;;;;9.80;99.90;;;;;;5079634;28;20382;-73
2022/09/20 09:35:52;;;;;;;;;;;9.90;99.90;;;;;;5066820;28;19928;-72
2022/09/20 09:38:26;;;;;;;;;;;10.00;99.90;;;;;;5063587;28;19928;-72
2022/09/20 09:40:54;;;;;;;;;;;10.20;99.90;;;;;;5077221;28;19925;-72
2022/09/20 09:43:34;;;;;;;;;;;10.30;99.90;;;;;;5059609;28;19974;-73
2022/09/20 09:46:20;;;;;;;;;;;10.40;99.90;;;;;;5073597;28;19932;-73
2022/09/20 09:49:06;;;;;;;;;;;10.60;99.90;;;;;;5078704;28;19924;-72
2022/09/20 09:51:34;;;;;;;;;;;10.60;99.90;;;;;;5080273;28;19950;-73
2022/09/20 09:54:10;;;;;;;;;;;10.50;99.90;;;;;;5051692;28;19928;-73
2022/09/20 09:56:37;;;;;;;;;;;10.50;99.90;;;;;;5081021;28;19928;-73
2022/09/20 09:59:27;;;;;;;;;;;10.60;99.90;;;;;;5064124;28;19964;-72
2022/09/20 10:02:12;;;;;;;;;;;10.70;99.90;;;;;;5043761;28;20009;-73
2022/09/20 10:04:50;;;;;;;;;;;10.90;99.90;;;;;;5063703;28;19962;-72
2022/09/20 10:07:37;;;;;;;;;;;11.10;99.90;;;;;;5042848;28;19960;-73
2022/09/20 10:10:19;;;;;;;;;;;11.20;99.90;;;;;;5064195;28;19974;-73
2022/09/20 10:13:09;;;;;;;;;;;11.40;99.90;;;;;;5065229;28;19929;-73
2022/09/20 10:15:50;;;;;;;;;;;11.50;99.90;;;;;;5081188;28;19964;-73
2022/09/20 10:18:37;;;;;;;;;;;11.50;99.90;;;;;;5057524;28;19951;-72
2022/09/20 10:21:28;;;;;;;;;;;11.50;99.90;;;;;;5060208;28;19951;-72
2022/09/20 10:24:08;;;;;;;;;;;11.40;99.90;;;;;;5069133;28;19931;-73
2022/09/20 10:26:40;;;;;;;;;;;11.40;99.90;;;;;;5076030;28;20378;-73
2022/09/20 10:29:18;;;;;;;;;;;11.30;99.90;;;;;;5054349;28;19928;-72
2022/09/20 10:32:04;;;;;;;;;;;11.40;99.90;;;;;;5068507;28;19955;-73
2022/09/20 10:34:34;;;;;;;;;;;11.40;99.90;;;;;;5078133;28;19929;-73
2022/09/20 10:37:14;;;;;;;;;;;11.50;99.90;;;;;;5076179;28;19934;-73
2022/09/20 10:39:48;;;;;;;;;;;11.50;99.90;;;;;;5063159;28;19935;-73
2022/09/20 10:45:35;;;;;;;;;;;11.80;99.90;;;;;;5077753;28;19933;-73
2022/09/20 10:48:17;;;;;;;;;;;11.80;99.90;;;;;;5045095;28;19935;-74
2022/09/20 10:51:24;;;;;;;;;;;11.90;99.90;;;;;;5073620;28;19932;-73
2022/09/20 10:54:07;;;;;;;;;;;11.90;99.90;;;;;;5028538;28;19928;-73
2022/09/20 10:56:45;;;;;;;;;;;11.90;99.90;;;;;;5079136;28;19935;-73
2022/09/20 10:59:13;;;;;;;;;;;12.00;99.90;;;;;;5066923;28;20395;-72
2022/09/20 11:01:53;;;;;;;;;;;12.00;99.90;;;;;;5070525;28;19925;-73
2022/09/20 11:04:41;;;;;;;;;;;12.10;99.90;;;;;;5053888;28;19928;-73
2022/09/20 11:07:11;;;;;;;;;;;12.20;99.90;;;;;;5061568;28;20634;-73
2022/09/20 11:09:45;;;;;;;;;;;12.50;99.90;;;;;;5080265;28;19978;-73
2022/09/20 11:12:37;;;;;;;;;;;12.60;99.90;;;;;;5065387;28;19924;-72
2022/09/20 11:15:23;;;;;;;;;;;12.60;99.90;;;;;;5047210;28;19931;-73
2022/09/20 11:18:03;;;;;;;;;;;12.60;99.90;;;;;;5057466;28;19986;-72
2022/09/20 11:20:46;;;;;;;;;;;12.50;99.90;;;;;;5075838;28;19924;-73
2022/09/20 11:23:20;;;;;;;;;;;12.60;99.90;;;;;;5059246;28;20342;-73
2022/09/20 11:25:57;;;;;;;;;;;12.60;99.90;;;;;;5056458;28;20068;-73
2022/09/20 11:28:30;;;;;;;;;;;12.60;99.90;;;;;;5065817;28;20424;-73
2022/09/20 11:31:01;;;;;;;;;;;12.50;99.90;;;;;;5068675;28;19924;-73
2022/09/20 11:33:52;;;;;;;;;;;12.60;99.90;;;;;;5066214;28;19932;-73
2022/09/20 11:36:29;;;;;;;;;;;12.70;99.90;;;;;;5055150;28;19932;-73
2022/09/20 11:39:19;;;;;;;;;;;12.80;99.90;;;;;;5074134;28;19930;-73
2022/09/20 11:41:53;;;;;;;;;;;13.00;99.90;;;;;;5049359;28;20006;-73
2022/09/20 11:44:20;;;;;;;;;;;12.90;99.90;;;;;;5052555;28;20388;-73
2022/09/20 11:46:59;;;;;;;;;;;12.90;99.90;;;;;;5071335;28;19975;-73
2022/09/20 11:49:36;;;;;;;;;;;13.00;99.90;;;;;;5054103;28;19952;-72
2022/09/20 11:52:11;;;;;;;;;;;12.90;99.90;;;;;;5068400;28;19928;-73
2022/09/20 11:54:58;;;;;;;;;;;12.90;99.90;;;;;;5074984;28;19975;-73
2022/09/20 11:57:29;;;;;;;;;;;12.80;99.90;;;;;;5056423;28;19967;-73
2022/09/20 12:00:02;;;;;;;;;;;12.80;99.90;;;;;;5072483;28;19965;-73
2022/09/20 12:02:45;;;;;;;;;;;12.80;99.90;;;;;;5070251;28;19924;-72
2022/09/20 12:05:26;;;;;;;;;;;12.90;99.90;;;;;;5048284;28;19929;-72
2022/09/20 12:07:59;;;;;;;;;;;13.00;99.90;;;;;;5057163;28;19994;-72
2022/09/20 12:10:36;;;;;;;;;;;13.00;99.90;;;;;;5063447;28;19969;-72
2022/09/20 12:13:18;;;;;;;;;;;13.00;99.90;;;;;;5058323;28;20013;-72
2022/09/20 12:16:04;;;;;;;;;;;13.00;99.90;;;;;;5073964;28;20275;-73
2022/09/20 12:18:44;;;;;;;;;;;13.00;99.90;;;;;;5071639;28;19932;-72
2022/09/20 12:21:17;;;;;;;;;;;13.00;99.90;;;;;;5064962;28;19933;-73
2022/09/20 12:23:51;;;;;;;;;;;13.10;99.90;;;;;;5064652;28;19928;-73
2022/09/20 12:26:23;;;;;;;;;;;13.30;99.90;;;;;;5068388;28;19935;-73
2022/09/20 12:29:00;;;;;;;;;;;13.40;99.90;;;;;;5062776;28;19968;-73
2022/09/20 12:31:36;;;;;;;;;;;13.70;99.90;;;;;;5073662;28;19978;-72
2022/09/20 12:34:12;;;;;;;;;;;13.80;99.90;;;;;;5052258;28;19924;-73
2022/09/20 12:36:45;;;;;;;;;;;13.90;99.90;;;;;;5069012;28;20433;-73
2022/09/20 12:39:11;;;;;;;;;;;13.90;99.90;;;;;;5073104;28;20023;-73
2022/09/20 12:41:46;;;;;;;;;;;14.00;99.90;;;;;;5054324;28;21247;-73
2022/09/20 12:44:27;;;;;;;;;;;14.10;99.90;;;;;;5047909;28;19997;-73
2022/09/20 12:47:09;;;;;;;;;;;14.20;99.90;;;;;;5069396;28;19924;-73
2022/09/20 12:52:49;;;;;;;;;;;13.70;99.90;;;;;;5070886;28;19968;-74
2022/09/20 12:55:29;;;;;;;;;;;13.90;99.90;;;;;;5072523;28;19960;-72
2022/09/20 12:57:59;;;;;;;;;;;14.00;99.90;;;;;;5062421;28;20303;-73
2022/09/20 13:00:39;;;;;;;;;;;14.10;99.90;;;;;;5065791;28;19925;-72
2022/09/20 13:03:14;;;;;;;;;;;14.20;99.90;;;;;;5068565;28;19928;-73
2022/09/20 13:05:45;;;;;;;;;;;14.20;99.90;;;;;;5053599;28;20338;-73
2022/09/20 13:08:22;;;;;;;;;;;13.90;99.90;;;;;;5060204;28;19932;-73
2022/09/20 13:11:05;;;;;;;;;;;13.70;99.90;;;;;;5050505;28;19983;-72
2022/09/20 13:13:43;;;;;;;;;;;13.70;99.90;;;;;;5053331;28;19937;-73
2022/09/20 13:16:23;;;;;;;;;;;13.60;99.90;;;;;;5039199;28;20602;-72
2022/09/20 13:19:03;;;;;;;;;;;13.60;99.90;;;;;;5052528;28;19978;-73
2022/09/20 13:21:41;;;;;;;;;;;13.50;99.90;;;;;;5069522;28;20343;-72
2022/09/20 13:24:15;;;;;;;;;;;13.40;99.90;;;;;;5035548;28;19925;-73
2022/09/20 13:26:48;;;;;;;;;;;13.30;99.90;;;;;;5056850;28;19932;-72
2022/09/20 13:29:32;;;;;;;;;;;13.10;99.90;;;;;;5076679;28;19928;-72
2022/09/20 13:32:22;;;;;;;;;;;13.10;99.90;;;;;;5054978;28;19932;-72
2022/09/20 13:35:05;;;;;;;;;;;13.20;99.90;;;;;;5067474;28;20300;-72
2022/09/20 13:37:32;;;;;;;;;;;13.10;99.90;;;;;;5050652;28;20402;-72
2022/09/20 13:39:59;;;;;;;;;;;13.10;99.90;;;;;;5048187;28;20267;-73
2022/09/20 13:42:28;;;;;;;;;;;13.20;99.90;;;;;;5072154;28;20391;-72
2022/09/20 13:45:02;;;;;;;;;;;13.20;99.90;;;;;;5051670;28;19978;-73
2022/09/20 13:47:40;;;;;;;;;;;13.50;99.90;;;;;;5050632;28;20273;-72
2022/09/20 13:50:15;;;;;;;;;;;13.60;99.90;;;;;;5068003;28;19932;-72
2022/09/20 13:52:46;;;;;;;;;;;13.80;99.90;;;;;;5042375;28;19928;-72
2022/09/20 13:55:20;;;;;;;;;;;13.90;99.90;;;;;;5059521;28;19929;-72
2022/09/20 13:57:52;;;;;;;;;;;14.10;99.90;;;;;;5069682;28;19928;-72
2022/09/20 14:00:24;;;;;;;;;;;14.30;99.90;;;;;;5053824;28;19971;-72
2022/09/20 14:02:56;;;;;;;;;;;14.40;99.90;;;;;;5075926;28;20730;-73
2022/09/20 14:05:28;;;;;;;;;;;14.50;99.90;;;;;;5064874;28;20014;-72
2022/09/20 14:08:00;;;;;;;;;;;14.60;99.90;;;;;;5073225;28;20387;-72
2022/09/20 14:10:35;;;;;;;;;;;14.60;99.90;;;;;;5081350;28;19978;-72
2022/09/20 14:13:10;;;;;;;;;;;14.70;99.90;;;;;;5078360;28;19924;-73
2022/09/20 14:15:43;;;;;;;;;;;14.80;99.90;;;;;;5041081;28;20010;-73
2022/09/20 14:18:17;;;;;;;;;;;14.90;99.90;;;;;;5071444;28;20346;-73
2022/09/20 14:20:48;;;;;;;;;;;15.10;99.90;;;;;;5059417;28;20358;-73
2022/09/20 14:23:21;;;;;;;;;;;15.20;99.90;;;;;;5037865;28;19929;-72
2022/09/20 14:26:11;;;;;;;;;;;15.40;99.90;;;;;;5081602;28;19928;-73
2022/09/20 14:28:43;;;;;;;;;;;15.40;99.90;;;;;;5080607;28;19925;-72
2022/09/20 14:31:17;;;;;;;;;;;15.60;99.90;;;;;;5060730;28;20362;-73
2022/09/20 14:33:50;;;;;;;;;;;15.50;99.90;;;;;;5076721;28;19978;-73
2022/09/20 14:36:26;;;;;;;;;;;15.70;99.50;;;;;;5082901;28;19928;-72
2022/09/20 14:39:01;;;;;;;;;;;15.70;98.70;;;;;;5077024;28;19928;-73
2022/09/20 14:41:37;;;;;;;;;;;15.90;99.90;;;;;;5056638;28;19928;-73
2022/09/20 14:44:05;;;;;;;;;;;16.20;99.90;;;;;;5054944;28;19931;-72
2022/09/20 14:46:37;;;;;;;;;;;16.00;99.90;;;;;;5073568;28;19924;-72
2022/09/20 14:49:19;;;;;;;;;;;15.60;99.90;;;;;;5069650;28;19986;-72
2022/09/20 14:51:51;;;;;;;;;;;15.20;99.90;;;;;;5056251;28;19935;-72
2022/09/20 14:54:28;;;;;;;;;;;14.70;99.90;;;;;;5080184;28;19946;-72
2022/09/20 14:57:01;;;;;;;;;;;14.50;99.90;;;;;;5075223;28;20019;-72
2022/09/20 14:59:36;;;;;;;;;;;14.30;99.90;;;;;;5071683;28;19924;-72
2022/09/20 15:02:13;;;;;;;;;;;14.20;99.90;;;;;;5085939;28;19928;-72
2022/09/20 15:04:52;;;;;;;;;;;14.10;99.90;;;;;;5074642;28;19925;-72
2022/09/20 15:07:24;;;;;;;;;;;14.10;99.90;;;;;;5050480;28;19967;-72
2022/09/20 15:09:56;;;;;;;;;;;14.10;99.90;;;;;;5043165;28;19928;-71
2022/09/20 15:12:28;;;;;;;;;;;14.40;99.90;;;;;;5058670;28;19925;-72
2022/09/20 15:14:59;;;;;;;;;;;14.60;99.90;;;;;;5071664;28;19928;-72
2022/09/20 15:17:31;;;;;;;;;;;14.50;99.90;;;;;;5064284;28;20282;-71
2022/09/20 15:20:02;;;;;;;;;;;14.30;99.90;;;;;;5062730;28;19928;-72
2022/09/20 15:22:34;;;;;;;;;;;14.40;99.90;;;;;;5070048;28;19936;-72
2022/09/20 15:25:11;;;;;;;;;;;14.90;99.90;;;;;;5071743;28;19924;-72
2022/09/20 15:27:45;;;;;;;;;;;14.80;99.90;;;;;;5038968;28;19924;-72
2022/09/20 15:30:18;;;;;;;;;;;14.70;99.90;;;;;;5052966;28;20360;-72
2022/09/20 15:32:51;;;;;;;;;;;14.90;99.90;;;;;;5055637;28;19924;-72
2022/09/20 15:35:22;;;;;;;;;;;15.70;99.90;;;;;;5068329;28;19924;-72